createdAt,value
2023-02-02T00:02:28.583Z,12.82
2023-02-02T00:06:11.081Z,17.33
2023-02-02T00:09:53.180Z,18.27
2023-02-02T00:13:35.390Z,12.77
2023-02-02T00:17:17.504Z,9.38
2023-02-02T00:20:59.474Z,12.53
2023-02-02T00:24:41.478Z,11.70
2023-02-02T00:28:23.505Z,10.73
2023-02-02T00:32:05.792Z,11.30
2023-02-02T00:35:47.798Z,14.43
2023-02-02T00:39:29.806Z,13.23
2023-02-02T00:43:11.935Z,9.15
2023-02-02T00:46:53.957Z,16.23
2023-02-02T00:50:35.933Z,15.07
2023-02-02T00:54:18.063Z,9.05
2023-02-02T00:58:00.153Z,9.00
2023-02-02T01:01:42.761Z,7.45
2023-02-02T01:05:25.198Z,9.52
2023-02-02T01:09:07.414Z,11.85
2023-02-02T01:12:49.432Z,11.45
2023-02-02T01:16:31.737Z,14.65
2023-02-02T01:20:19.977Z,10.25
2023-02-02T01:24:04.282Z,11.17
2023-02-02T01:27:46.267Z,8.38
2023-02-02T01:31:28.262Z,15.02
2023-02-02T01:35:11.039Z,11.10
2023-02-02T01:38:53.139Z,10.77
2023-02-02T01:42:35.100Z,11.63
2023-02-02T01:46:22.227Z,13.00
2023-02-02T01:50:05.836Z,10.30
2023-02-02T01:53:49.905Z,11.93
2023-02-02T01:57:39.814Z,12.93
2023-02-02T02:01:21.935Z,8.40
2023-02-02T02:05:06.223Z,11.63
2023-02-02T02:08:57.301Z,10.00
2023-02-02T02:12:41.407Z,9.53
2023-02-02T02:16:41.457Z,7.43
2023-02-02T02:21:19.127Z,10.55
2023-02-02T02:25:32.381Z,7.68
2023-02-02T02:29:32.639Z,16.05
2023-02-02T02:33:57.932Z,12.07
2023-02-02T02:37:48.958Z,11.55
2023-02-02T02:41:38.837Z,11.50
2023-02-02T02:45:22.265Z,9.13
2023-02-02T02:49:04.922Z,14.32
2023-02-02T02:52:49.767Z,12.60
2023-02-02T02:56:48.004Z,10.40
2023-02-02T03:00:42.614Z,7.50
2023-02-02T03:04:41.359Z,10.25
2023-02-02T03:08:32.777Z,20.17
2023-02-02T03:12:17.539Z,13.45
2023-02-02T03:15:59.843Z,8.85
2023-02-02T03:19:41.907Z,7.93
2023-02-02T03:23:23.901Z,14.90
2023-02-02T03:27:05.924Z,10.80
2023-02-02T03:30:48.781Z,12.17
2023-02-02T03:34:30.926Z,10.02
2023-02-02T03:38:12.930Z,15.05
2023-02-02T03:41:54.907Z,11.82
2023-02-02T03:45:37.524Z,12.00
2023-02-02T03:49:19.564Z,9.35
2023-02-02T03:53:01.561Z,13.20
2023-02-02T03:56:43.484Z,14.43
2023-02-02T04:00:25.441Z,11.10
2023-02-02T04:04:07.452Z,10.85
2023-02-02T04:07:49.506Z,8.93
2023-02-02T04:11:31.657Z,11.35
2023-02-02T04:15:13.624Z,10.57
2023-02-02T04:18:55.919Z,11.38
2023-02-02T04:22:37.885Z,7.88
2023-02-02T04:26:20.163Z,7.05
2023-02-02T04:30:02.209Z,8.05
2023-02-02T04:33:44.320Z,7.77
2023-02-02T04:37:26.326Z,9.20
2023-02-02T04:41:09.915Z,10.88
2023-02-02T04:44:52.100Z,9.80
2023-02-02T04:48:34.183Z,8.85
2023-02-02T04:52:16.479Z,8.70
2023-02-02T04:56:04.938Z,10.07
2023-02-02T04:59:46.889Z,8.65
2023-02-02T05:03:28.924Z,8.63
2023-02-02T05:07:10.946Z,10.70
2023-02-02T05:10:53.287Z,10.87
2023-02-02T05:14:35.208Z,9.38
2023-02-02T05:18:17.191Z,6.97
2023-02-02T05:21:59.204Z,6.20
2023-02-02T05:25:41.638Z,7.03
2023-02-02T05:29:23.607Z,7.32
2023-02-02T05:33:05.623Z,9.30
2023-02-02T05:36:47.650Z,9.23
2023-02-02T05:40:29.855Z,9.82
2023-02-02T05:44:13.737Z,11.85
2023-02-02T05:47:56.148Z,6.33
2023-02-02T05:51:43.611Z,8.75
2023-02-02T05:55:25.892Z,7.85
2023-02-02T05:59:08.158Z,8.97
2023-02-02T06:02:50.188Z,7.13
2023-02-02T06:06:32.140Z,8.60
2023-02-02T06:10:14.168Z,5.75
2023-02-02T06:13:56.782Z,6.35
2023-02-02T06:17:38.828Z,4.75
2023-02-02T06:21:23.264Z,5.35
2023-02-02T06:25:05.806Z,7.67
2023-02-02T06:28:53.018Z,5.32
2023-02-02T06:32:35.225Z,6.22
2023-02-02T06:36:17.218Z,7.07
2023-02-02T06:39:59.208Z,6.38
2023-02-02T06:43:41.206Z,7.43
2023-02-02T06:47:24.513Z,5.10
2023-02-02T06:51:07.771Z,8.80
2023-02-02T06:54:50.397Z,5.65
2023-02-02T06:58:33.825Z,5.05
2023-02-02T07:02:15.805Z,4.70
2023-02-02T07:05:57.880Z,6.80
2023-02-02T07:09:39.882Z,5.97
2023-02-02T07:13:21.805Z,8.10
2023-02-02T07:17:03.852Z,6.53
2023-02-02T07:20:45.860Z,6.63
2023-02-02T07:24:27.967Z,10.30
2023-02-02T07:28:09.885Z,7.15
2023-02-02T07:31:52.165Z,8.73
2023-02-02T07:35:34.198Z,10.70
2023-02-02T07:39:16.813Z,7.47
2023-02-02T07:43:01.080Z,6.60
2023-02-02T07:46:44.945Z,7.82
2023-02-02T07:50:29.399Z,7.27
2023-02-02T07:54:11.437Z,6.35
2023-02-02T07:57:55.533Z,5.97
2023-02-02T08:01:37.574Z,5.05
2023-02-02T08:05:19.802Z,4.68
2023-02-02T08:09:04.201Z,5.65
2023-02-02T08:13:19.201Z,5.18
2023-02-02T08:17:01.321Z,7.97
2023-02-02T08:21:16.338Z,8.55
2023-02-02T08:29:07.725Z,9.97
2023-02-02T08:37:00.814Z,5.43
2023-02-02T08:46:01.811Z,8.40
2023-02-02T08:49:04.379Z,6.47
2023-02-02T08:52:46.754Z,8.45
2023-02-02T09:00:28.330Z,9.00
2023-02-02T09:04:16.328Z,10.60
2023-02-02T09:08:31.102Z,11.70
2023-02-02T09:12:13.143Z,8.10
2023-02-02T09:16:07.601Z,8.45
2023-02-02T09:19:50.311Z,7.60
2023-02-02T09:24:00.952Z,6.63
2023-02-02T09:27:42.992Z,9.55
2023-02-02T09:32:10.614Z,6.47
2023-02-02T09:35:52.855Z,6.53
2023-02-02T09:39:45.424Z,7.88
2023-02-02T09:43:42.950Z,6.43
2023-02-02T09:48:10.548Z,6.78
2023-02-02T09:55:59.555Z,8.57
2023-02-02T10:00:02.465Z,7.85
2023-02-02T10:03:58.386Z,5.28
2023-02-02T10:08:14.020Z,7.30
2023-02-02T10:12:26.980Z,4.47
2023-02-02T10:16:17.674Z,8.93
2023-02-02T10:20:17.398Z,5.90
2023-02-02T10:24:03.365Z,5.80
2023-02-02T10:40:59.376Z,9.25
2023-02-02T10:48:58.388Z,5.95
2023-02-02T10:53:17.318Z,5.75
2023-02-02T11:01:11.785Z,8.20
2023-02-02T11:22:45.776Z,4.90
2023-02-02T11:27:02.180Z,6.97
2023-02-02T11:39:30.101Z,3.80
2023-02-02T11:47:30.613Z,5.37
2023-02-02T11:51:50.525Z,9.73
2023-02-02T11:55:33.601Z,4.38
2023-02-02T12:07:51.301Z,5.03
2023-02-02T12:16:47.521Z,4.05
2023-02-02T12:25:49.374Z,4.03
2023-02-02T12:34:47.347Z,2.70
2023-02-02T12:39:28.926Z,5.03
2023-02-02T12:43:38.749Z,4.00
2023-02-02T12:56:10.773Z,4.07
2023-02-02T13:09:44.865Z,4.13
2023-02-02T13:22:14.811Z,2.50
2023-02-02T13:26:27.734Z,5.47
2023-02-02T13:34:40.947Z,4.22
2023-02-02T14:08:25.885Z,4.90
2023-02-02T14:48:53.778Z,8.77
2023-02-02T15:02:32.270Z,4.10
2023-02-02T15:39:40.478Z,7.35
2023-02-02T16:12:12.351Z,6.53
2023-02-02T16:30:14.966Z,3.97
2023-02-02T16:34:47.550Z,3.47
2023-02-02T16:43:39.839Z,4.20
2023-02-02T16:47:28.217Z,3.90
2023-02-02T16:51:34.113Z,7.67
2023-02-02T16:55:18.410Z,3.72
2023-02-02T16:59:31.466Z,4.88
2023-02-02T17:03:18.275Z,5.20
2023-02-02T17:07:57.778Z,6.10
2023-02-02T17:11:42.950Z,5.05
2023-02-02T17:24:32.746Z,8.27
2023-02-02T17:28:38.077Z,4.18
2023-02-02T17:44:23.547Z,7.10
2023-02-02T17:48:07.964Z,7.88
2023-02-02T17:52:03.927Z,7.60
2023-02-02T17:55:59.992Z,5.30
2023-02-02T17:59:51.186Z,5.57
2023-02-02T18:03:39.744Z,7.82
2023-02-02T18:07:23.167Z,7.32
2023-02-02T18:11:05.541Z,7.47
2023-02-02T18:14:49.531Z,8.50
2023-02-02T18:18:37.873Z,8.48
2023-02-02T18:22:26.685Z,7.75
2023-02-02T18:26:30.676Z,6.45
2023-02-02T18:30:19.459Z,5.88
2023-02-02T18:34:03.959Z,7.82
2023-02-02T18:37:55.828Z,7.37
2023-02-02T18:41:54.357Z,8.60
2023-02-02T18:45:39.651Z,6.60
2023-02-02T18:49:22.257Z,9.80
2023-02-02T18:53:04.489Z,6.93
2023-02-02T18:57:08.592Z,7.03
2023-02-02T19:01:22.664Z,7.82
2023-02-02T19:05:22.157Z,5.55
2023-02-02T19:09:08.383Z,6.55
2023-02-02T19:12:59.023Z,8.10
2023-02-02T19:17:08.710Z,5.93
2023-02-02T19:21:02.178Z,8.75
2023-02-02T19:24:44.364Z,5.00
2023-02-02T19:28:34.057Z,5.03
2023-02-02T19:32:18.599Z,7.63
2023-02-02T19:36:02.037Z,7.15
2023-02-02T19:39:44.876Z,7.10
2023-02-02T19:43:28.676Z,8.70
2023-02-02T19:47:31.524Z,9.32
2023-02-02T19:51:42.020Z,5.70
2023-02-02T19:55:24.128Z,8.57
2023-02-02T19:59:18.078Z,9.10
2023-02-02T20:03:13.251Z,4.95
2023-02-02T20:06:59.655Z,7.57
2023-02-02T20:10:43.889Z,8.45
2023-02-02T20:14:32.968Z,7.50
2023-02-02T20:18:19.923Z,6.15
2023-02-02T20:22:02.467Z,5.60
2023-02-02T20:25:44.592Z,8.20
2023-02-02T20:29:36.647Z,7.85
2023-02-02T20:33:27.132Z,7.23
2023-02-02T20:37:20.007Z,6.63
2023-02-02T20:41:04.658Z,6.55
2023-02-02T20:44:47.055Z,8.90
2023-02-02T20:48:31.987Z,6.20
2023-02-02T20:52:22.076Z,8.98
2023-02-02T20:56:06.857Z,7.00
2023-02-02T20:59:57.550Z,9.65
2023-02-02T21:03:39.616Z,8.05
2023-02-02T21:07:22.019Z,8.52
2023-02-02T21:11:04.445Z,8.60
2023-02-02T21:14:47.195Z,7.13
2023-02-02T21:18:32.143Z,8.30
2023-02-02T21:22:14.694Z,10.27
2023-02-02T21:25:56.817Z,8.68
2023-02-02T21:29:38.975Z,9.25
2023-02-02T21:33:21.202Z,4.28
2023-02-02T21:37:03.359Z,6.95
2023-02-02T21:40:47.355Z,5.32
2023-02-02T21:44:29.524Z,8.65
2023-02-02T21:48:23.045Z,6.53
2023-02-02T21:52:20.823Z,5.93
2023-02-02T21:56:03.522Z,6.50
2023-02-02T21:59:47.072Z,6.37
2023-02-02T22:03:46.762Z,6.38
2023-02-02T22:07:32.389Z,6.55
2023-02-02T22:12:02.613Z,5.75
2023-02-02T22:15:49.863Z,7.32
2023-02-02T22:19:38.951Z,5.60
2023-02-02T22:23:23.635Z,9.80
2023-02-02T22:27:24.805Z,9.30
2023-02-02T22:31:10.001Z,7.05
2023-02-02T22:34:52.274Z,6.07
2023-02-02T22:38:34.348Z,7.20
2023-02-02T22:42:18.479Z,6.80
2023-02-02T22:46:03.366Z,6.30
2023-02-02T22:49:49.736Z,7.30
2023-02-02T22:53:32.659Z,5.90
2023-02-02T22:57:15.161Z,8.27
2023-02-02T23:00:59.681Z,6.28
2023-02-02T23:04:41.874Z,6.00
2023-02-02T23:08:24.509Z,8.18
2023-02-02T23:12:06.915Z,4.45
2023-02-02T23:15:50.307Z,7.80
2023-02-02T23:19:32.434Z,5.95
2023-02-02T23:23:14.585Z,4.32
2023-02-02T23:26:59.346Z,8.13
2023-02-02T23:30:43.945Z,5.28
2023-02-02T23:34:27.438Z,5.57
2023-02-02T23:38:09.647Z,5.40
2023-02-02T23:41:51.729Z,6.63
2023-02-02T23:45:33.961Z,8.18
2023-02-02T23:49:16.440Z,6.47
2023-02-02T23:52:58.467Z,9.13
2023-02-02T23:56:41.629Z,10.70
